sensor_id;sensor_type;location;lat;lon;timestamp;pressure;altitude;pressure_sealevel;temperature;humidity
54876;BME280;40764;48.472;8.166;2023-04-16T00:02:02;98227.84;;;8.68;100.00
54876;BME280;40764;48.472;8.166;2023-04-16T00:08:02;98228.56;;;8.79;100.00
54876;BME280;40764;48.472;8.166;2023-04-16T00:14:03;98238.41;;;8.75;100.00
54876;BME280;40764;48.472;8.166;2023-04-16T00:20:04;98237.06;;;8.73;100.00
54876;BME280;40764;48.472;8.166;2023-04-16T00:26:04;98243.84;;;8.80;100.00
54876;BME280;40764;48.472;8.166;2023-04-16T00:32:05;98237.81;;;8.83;100.00
54876;BME280;40764;48.472;8.166;2023-04-16T00:38:06;98231.31;;;8.79;100.00
54876;BME280;40764;48.472;8.166;2023-04-16T00:44:07;98240.22;;;8.90;100.00
54876;BME280;40764;48.472;8.166;2023-04-16T00:50:10;98248.16;;;8.86;100.00
54876;BME280;40764;48.472;8.166;2023-04-16T00:56:11;98245.53;;;8.71;100.00
54876;BME280;40764;48.472;8.166;2023-04-16T01:02:11;98247.97;;;8.73;100.00
54876;BME280;40764;48.472;8.166;2023-04-16T01:08:20;98246.53;;;8.85;100.00
54876;BME280;40764;48.472;8.166;2023-04-16T01:14:20;98247.09;;;8.82;100.00
54876;BME280;40764;48.472;8.166;2023-04-16T01:20:20;98246.16;;;9.02;100.00
54876;BME280;40764;48.472;8.166;2023-04-16T01:26:21;98254.72;;;8.80;100.00
54876;BME280;40764;48.472;8.166;2023-04-16T01:32:21;98265.19;;;8.63;100.00
54876;BME280;40764;48.472;8.166;2023-04-16T01:38:21;98258.88;;;8.73;100.00
54876;BME280;40764;48.472;8.166;2023-04-16T01:44:22;98273.56;;;8.77;100.00
54876;BME280;40764;48.472;8.166;2023-04-16T01:50:22;98257.50;;;8.75;100.00
54876;BME280;40764;48.472;8.166;2023-04-16T01:56:23;98257.56;;;8.60;100.00
54876;BME280;40764;48.472;8.166;2023-04-16T02:02:23;98257.81;;;8.68;100.00
54876;BME280;40764;48.472;8.166;2023-04-16T02:08:27;98265.44;;;8.72;100.00
54876;BME280;40764;48.472;8.166;2023-04-16T02:14:27;98272.09;;;8.45;100.00
54876;BME280;40764;48.472;8.166;2023-04-16T02:20:28;98273.88;;;8.65;100.00
54876;BME280;40764;48.472;8.166;2023-04-16T02:26:28;98273.94;;;8.55;100.00
54876;BME280;40764;48.472;8.166;2023-04-16T02:32:29;98275.25;;;8.62;100.00
54876;BME280;40764;48.472;8.166;2023-04-16T02:38:29;98275.31;;;8.52;100.00
54876;BME280;40764;48.472;8.166;2023-04-16T02:44:29;98284.25;;;8.68;100.00
54876;BME280;40764;48.472;8.166;2023-04-16T02:50:30;98291.94;;;8.56;100.00
54876;BME280;40764;48.472;8.166;2023-04-16T02:56:30;98281.53;;;8.63;100.00
54876;BME280;40764;48.472;8.166;2023-04-16T03:02:30;98284.31;;;8.53;100.00
54876;BME280;40764;48.472;8.166;2023-04-16T03:08:31;98287.34;;;8.46;100.00
54876;BME280;40764;48.472;8.166;2023-04-16T03:14:31;98287.59;;;8.50;100.00
54876;BME280;40764;48.472;8.166;2023-04-16T03:20:32;98290.88;;;8.47;100.00
54876;BME280;40764;48.472;8.166;2023-04-16T03:26:32;98285.66;;;8.55;100.00
54876;BME280;40764;48.472;8.166;2023-04-16T03:32:32;98287.50;;;8.65;100.00
54876;BME280;40764;48.472;8.166;2023-04-16T03:38:33;98290.06;;;8.51;100.00
54876;BME280;40764;48.472;8.166;2023-04-16T03:44:33;98293.03;;;8.55;100.00
54876;BME280;40764;48.472;8.166;2023-04-16T03:50:33;98293.34;;;8.48;100.00
54876;BME280;40764;48.472;8.166;2023-04-16T03:56:34;98293.34;;;8.48;100.00
54876;BME280;40764;48.472;8.166;2023-04-16T04:02:34;98290.53;;;8.68;100.00
54876;BME280;40764;48.472;8.166;2023-04-16T04:08:34;98294.16;;;8.49;100.00
54876;BME280;40764;48.472;8.166;2023-04-16T04:14:35;98300.16;;;8.46;100.00
54876;BME280;40764;48.472;8.166;2023-04-16T04:20:39;98303.44;;;8.43;100.00
54876;BME280;40764;48.472;8.166;2023-04-16T04:26:40;98304.38;;;8.77;100.00
54876;BME280;40764;48.472;8.166;2023-04-16T04:32:40;98308.25;;;8.61;100.00
54876;BME280;40764;48.472;8.166;2023-04-16T04:38:41;98311.88;;;8.46;100.00
54876;BME280;40764;48.472;8.166;2023-04-16T04:44:41;98316.75;;;8.49;100.00
54876;BME280;40764;48.472;8.166;2023-04-16T04:50:44;98341.84;;;8.36;100.00
54876;BME280;40764;48.472;8.166;2023-04-16T04:56:45;98337.22;;;8.36;100.00
54876;BME280;40764;48.472;8.166;2023-04-16T05:02:45;98338.00;;;8.52;100.00
54876;BME280;40764;48.472;8.166;2023-04-16T05:08:46;98349.50;;;8.39;100.00
54876;BME280;40764;48.472;8.166;2023-04-16T05:14:46;98350.31;;;8.40;100.00
54876;BME280;40764;48.472;8.166;2023-04-16T05:20:47;98345.91;;;8.49;100.00
54876;BME280;40764;48.472;8.166;2023-04-16T05:26:47;98352.63;;;8.66;100.00
54876;BME280;40764;48.472;8.166;2023-04-16T05:32:47;98358.13;;;8.56;100.00
54876;BME280;40764;48.472;8.166;2023-04-16T05:38:47;98368.44;;;8.75;100.00
54876;BME280;40764;48.472;8.166;2023-04-16T05:44:49;98371.72;;;8.61;100.00
54876;BME280;40764;48.472;8.166;2023-04-16T05:50:49;98378.53;;;8.64;100.00
54876;BME280;40764;48.472;8.166;2023-04-16T05:56:50;98378.81;;;8.67;100.00
54876;BME280;40764;48.472;8.166;2023-04-16T06:02:50;98394.13;;;8.48;100.00
54876;BME280;40764;48.472;8.166;2023-04-16T06:08:50;98396.59;;;8.50;100.00
54876;BME280;40764;48.472;8.166;2023-04-16T06:14:51;98399.31;;;8.50;100.00
54876;BME280;40764;48.472;8.166;2023-04-16T06:20:51;98403.09;;;8.59;100.00
54876;BME280;40764;48.472;8.166;2023-04-16T06:26:52;98400.06;;;8.60;100.00
54876;BME280;40764;48.472;8.166;2023-04-16T06:32:53;98408.50;;;8.74;100.00
54876;BME280;40764;48.472;8.166;2023-04-16T06:38:53;98413.06;;;8.89;100.00
54876;BME280;40764;48.472;8.166;2023-04-16T06:44:54;98414.41;;;8.91;100.00
54876;BME280;40764;48.472;8.166;2023-04-16T06:50:54;98405.69;;;8.89;100.00
54876;BME280;40764;48.472;8.166;2023-04-16T06:56:55;98420.19;;;8.80;100.00
54876;BME280;40764;48.472;8.166;2023-04-16T07:02:55;98422.03;;;8.94;100.00
54876;BME280;40764;48.472;8.166;2023-04-16T07:08:56;98426.50;;;8.65;100.00
54876;BME280;40764;48.472;8.166;2023-04-16T07:14:56;98432.94;;;8.99;100.00
54876;BME280;40764;48.472;8.166;2023-04-16T07:20:56;98426.19;;;8.82;100.00
54876;BME280;40764;48.472;8.166;2023-04-16T07:26:57;98433.44;;;9.07;100.00
54876;BME280;40764;48.472;8.166;2023-04-16T07:32:57;98429.91;;;9.06;100.00
54876;BME280;40764;48.472;8.166;2023-04-16T07:38:58;98431.16;;;9.24;100.00
54876;BME280;40764;48.472;8.166;2023-04-16T07:44:58;98444.19;;;9.37;100.00
54876;BME280;40764;48.472;8.166;2023-04-16T07:50:58;98439.53;;;9.43;100.00
54876;BME280;40764;48.472;8.166;2023-04-16T07:56:59;98443.91;;;9.39;99.24
54876;BME280;40764;48.472;8.166;2023-04-16T08:02:59;98449.16;;;9.25;100.00
54876;BME280;40764;48.472;8.166;2023-04-16T08:08:59;98459.13;;;8.90;100.00
54876;BME280;40764;48.472;8.166;2023-04-16T08:15:00;98470.81;;;9.06;100.00
54876;BME280;40764;48.472;8.166;2023-04-16T08:21:00;98478.28;;;8.75;100.00
54876;BME280;40764;48.472;8.166;2023-04-16T08:27:01;98488.56;;;8.98;100.00
54876;BME280;40764;48.472;8.166;2023-04-16T08:33:01;98489.66;;;8.87;100.00
54876;BME280;40764;48.472;8.166;2023-04-16T08:39:02;98499.47;;;8.93;100.00
54876;BME280;40764;48.472;8.166;2023-04-16T08:45:07;98507.09;;;8.91;100.00
54876;BME280;40764;48.472;8.166;2023-04-16T08:51:09;98517.41;;;9.10;99.80
54876;BME280;40764;48.472;8.166;2023-04-16T08:57:10;98514.72;;;9.05;99.51
54876;BME280;40764;48.472;8.166;2023-04-16T09:03:12;98520.66;;;9.17;97.90
54876;BME280;40764;48.472;8.166;2023-04-16T09:09:13;98518.16;;;9.30;97.46
54876;BME280;40764;48.472;8.166;2023-04-16T09:15:15;98527.72;;;9.28;96.69
54876;BME280;40764;48.472;8.166;2023-04-16T09:21:15;98529.81;;;9.46;96.02
54876;BME280;40764;48.472;8.166;2023-04-16T09:27:16;98526.16;;;9.71;95.12
54876;BME280;40764;48.472;8.166;2023-04-16T09:33:18;98537.44;;;9.54;94.21
54876;BME280;40764;48.472;8.166;2023-04-16T09:39:21;98535.00;;;9.48;93.63
54876;BME280;40764;48.472;8.166;2023-04-16T09:45:22;98539.63;;;9.47;94.65
54876;BME280;40764;48.472;8.166;2023-04-16T09:51:22;98540.66;;;9.61;93.79
54876;BME280;40764;48.472;8.166;2023-04-16T09:57:25;98536.03;;;9.62;94.08
54876;BME280;40764;48.472;8.166;2023-04-16T10:03:30;98545.34;;;9.51;92.82
54876;BME280;40764;48.472;8.166;2023-04-16T10:09:39;98548.25;;;9.70;92.78
54876;BME280;40764;48.472;8.166;2023-04-16T10:15:40;98551.19;;;9.88;91.18
54876;BME280;40764;48.472;8.166;2023-04-16T10:21:41;98564.56;;;9.85;91.40
54876;BME280;40764;48.472;8.166;2023-04-16T10:27:42;98564.53;;;9.90;92.10
54876;BME280;40764;48.472;8.166;2023-04-16T10:33:43;98566.84;;;10.12;90.36
54876;BME280;40764;48.472;8.166;2023-04-16T10:39:44;98560.22;;;10.28;91.18
54876;BME280;40764;48.472;8.166;2023-04-16T10:45:46;98557.94;;;10.40;90.07
54876;BME280;40764;48.472;8.166;2023-04-16T10:51:57;98563.00;;;10.23;90.74
54876;BME280;40764;48.472;8.166;2023-04-16T10:57:58;98564.41;;;10.10;89.99
54876;BME280;40764;48.472;8.166;2023-04-16T11:10:38;98571.03;;;9.99;89.12
54876;BME280;40764;48.472;8.166;2023-04-16T11:16:39;98572.34;;;10.07;88.71
54876;BME280;40764;48.472;8.166;2023-04-16T11:22:40;98568.75;;;10.21;89.53
54876;BME280;40764;48.472;8.166;2023-04-16T11:28:40;98566.59;;;10.13;89.39
54876;BME280;40764;48.472;8.166;2023-04-16T11:34:44;98573.25;;;10.36;88.14
54876;BME280;40764;48.472;8.166;2023-04-16T11:40:48;98568.84;;;10.40;87.42
54876;BME280;40764;48.472;8.166;2023-04-16T11:46:50;98559.50;;;10.07;89.02
54876;BME280;40764;48.472;8.166;2023-04-16T11:52:51;98563.13;;;9.98;90.32
54876;BME280;40764;48.472;8.166;2023-04-16T12:05:34;98569.84;;;10.20;91.09
54876;BME280;40764;48.472;8.166;2023-04-16T12:11:41;98576.72;;;10.08;93.61
54876;BME280;40764;48.472;8.166;2023-04-16T12:17:41;98576.66;;;10.23;90.47
54876;BME280;40764;48.472;8.166;2023-04-16T12:23:42;98585.63;;;10.29;91.05
54876;BME280;40764;48.472;8.166;2023-04-16T12:29:42;98586.19;;;10.26;90.75
54876;BME280;40764;48.472;8.166;2023-04-16T12:35:42;98586.41;;;10.34;89.40
54876;BME280;40764;48.472;8.166;2023-04-16T12:41:44;98582.50;;;10.01;90.47
54876;BME280;40764;48.472;8.166;2023-04-16T12:47:45;98590.31;;;10.23;90.40
54876;BME280;40764;48.472;8.166;2023-04-16T12:53:45;98591.81;;;10.44;90.52
54876;BME280;40764;48.472;8.166;2023-04-16T12:59:46;98593.16;;;10.47;88.99
54876;BME280;40764;48.472;8.166;2023-04-16T13:05:46;98598.38;;;10.43;89.65
54876;BME280;40764;48.472;8.166;2023-04-16T13:11:46;98590.03;;;10.24;89.42
54876;BME280;40764;48.472;8.166;2023-04-16T13:17:47;98590.09;;;10.09;89.82
54876;BME280;40764;48.472;8.166;2023-04-16T13:23:47;98588.06;;;10.30;90.18
54876;BME280;40764;48.472;8.166;2023-04-16T13:29:47;98596.22;;;10.35;90.39
54876;BME280;40764;48.472;8.166;2023-04-16T13:35:48;98597.56;;;10.38;90.82
54876;BME280;40764;48.472;8.166;2023-04-16T13:41:49;98590.41;;;10.03;91.56
54876;BME280;40764;48.472;8.166;2023-04-16T13:47:50;98596.06;;;10.21;91.14
54876;BME280;40764;48.472;8.166;2023-04-16T13:53:52;98593.34;;;10.21;91.14
54876;BME280;40764;48.472;8.166;2023-04-16T13:59:52;98590.31;;;10.18;91.27
54876;BME280;40764;48.472;8.166;2023-04-16T14:05:53;98590.72;;;10.40;90.57
54876;BME280;40764;48.472;8.166;2023-04-16T14:11:54;98590.84;;;10.25;90.99
54876;BME280;40764;48.472;8.166;2023-04-16T14:17:54;98587.16;;;10.40;90.57
54876;BME280;40764;48.472;8.166;2023-04-16T14:23:55;98591.44;;;10.56;89.62
54876;BME280;40764;48.472;8.166;2023-04-16T14:29:56;98582.09;;;10.91;88.12
54876;BME280;40764;48.472;8.166;2023-04-16T14:35:56;98584.25;;;10.65;89.46
54876;BME280;40764;48.472;8.166;2023-04-16T14:41:57;98582.38;;;10.90;88.21
54876;BME280;40764;48.472;8.166;2023-04-16T14:47:57;98594.16;;;10.56;88.65
54876;BME280;40764;48.472;8.166;2023-04-16T14:53:58;98589.91;;;10.40;89.77
54876;BME280;40764;48.472;8.166;2023-04-16T14:59:58;98592.91;;;10.43;90.08
54876;BME280;40764;48.472;8.166;2023-04-16T15:05:58;98597.00;;;10.46;90.73
54876;BME280;40764;48.472;8.166;2023-04-16T15:11:58;98600.53;;;10.46;91.50
54876;BME280;40764;48.472;8.166;2023-04-16T15:17:59;98595.50;;;10.59;91.46
54876;BME280;40764;48.472;8.166;2023-04-16T15:24:00;98599.00;;;10.30;93.24
54876;BME280;40764;48.472;8.166;2023-04-16T15:30:00;98607.28;;;10.10;94.62
54876;BME280;40764;48.472;8.166;2023-04-16T15:36:01;98603.69;;;10.19;95.11
54876;BME280;40764;48.472;8.166;2023-04-16T15:42:03;98611.28;;;9.83;97.54
54876;BME280;40764;48.472;8.166;2023-04-16T15:48:05;98611.00;;;9.80;98.43
54876;BME280;40764;48.472;8.166;2023-04-16T15:54:05;98614.25;;;9.82;98.72
54876;BME280;40764;48.472;8.166;2023-04-16T16:00:06;98606.13;;;9.72;100.00
54876;BME280;40764;48.472;8.166;2023-04-16T16:06:14;98608.53;;;9.83;100.00
54876;BME280;40764;48.472;8.166;2023-04-16T16:12:16;98608.53;;;9.83;100.00
54876;BME280;40764;48.472;8.166;2023-04-16T16:18:17;98609.75;;;9.57;100.00
54876;BME280;40764;48.472;8.166;2023-04-16T16:24:17;98613.25;;;9.68;100.00
54876;BME280;40764;48.472;8.166;2023-04-16T16:30:18;98614.84;;;9.74;100.00
54876;BME280;40764;48.472;8.166;2023-04-16T16:36:18;98617.03;;;9.72;100.00
54876;BME280;40764;48.472;8.166;2023-04-16T16:42:19;98616.84;;;9.53;100.00
54876;BME280;40764;48.472;8.166;2023-04-16T16:48:19;98613.25;;;9.68;100.00
54876;BME280;40764;48.472;8.166;2023-04-16T16:54:20;98608.84;;;9.72;100.00
54876;BME280;40764;48.472;8.166;2023-04-16T17:00:20;98622.03;;;9.59;100.00
54876;BME280;40764;48.472;8.166;2023-04-16T17:06:21;98623.31;;;9.72;100.00
54876;BME280;40764;48.472;8.166;2023-04-16T17:12:21;98614.81;;;9.79;100.00
54876;BME280;40764;48.472;8.166;2023-04-16T17:18:23;98620.34;;;9.69;100.00
54876;BME280;40764;48.472;8.166;2023-04-16T17:24:23;98620.38;;;9.58;100.00
54876;BME280;40764;48.472;8.166;2023-04-16T17:30:24;98624.38;;;9.76;100.00
54876;BME280;40764;48.472;8.166;2023-04-16T17:36:26;98628.41;;;9.94;100.00
54876;BME280;40764;48.472;8.166;2023-04-16T17:42:26;98627.72;;;9.68;100.00
54876;BME280;40764;48.472;8.166;2023-04-16T17:48:27;98638.03;;;9.76;100.00
54876;BME280;40764;48.472;8.166;2023-04-16T17:54:27;98635.88;;;9.73;100.00
54876;BME280;40764;48.472;8.166;2023-04-16T18:00:27;98644.88;;;9.74;100.00
54876;BME280;40764;48.472;8.166;2023-04-16T18:06:28;98643.84;;;9.59;100.00
54876;BME280;40764;48.472;8.166;2023-04-16T18:12:28;98646.81;;;9.68;100.00
54876;BME280;40764;48.472;8.166;2023-04-16T18:18:28;98641.63;;;9.67;100.00
54876;BME280;40764;48.472;8.166;2023-04-16T18:24:29;98644.13;;;9.53;100.00
54876;BME280;40764;48.472;8.166;2023-04-16T18:30:29;98653.44;;;9.42;100.00
54876;BME280;40764;48.472;8.166;2023-04-16T18:36:30;98657.81;;;9.43;100.00
54876;BME280;40764;48.472;8.166;2023-04-16T18:42:30;98660.28;;;9.39;100.00
54876;BME280;40764;48.472;8.166;2023-04-16T18:48:31;98662.97;;;9.44;100.00
54876;BME280;40764;48.472;8.166;2023-04-16T18:54:31;98671.44;;;9.43;100.00
54876;BME280;40764;48.472;8.166;2023-04-16T19:00:31;98664.66;;;9.35;100.00
54876;BME280;40764;48.472;8.166;2023-04-16T19:06:32;98670.66;;;9.37;100.00
54876;BME280;40764;48.472;8.166;2023-04-16T19:12:32;98672.84;;;9.30;100.00
54876;BME280;40764;48.472;8.166;2023-04-16T19:18:33;98674.75;;;9.35;100.00
54876;BME280;40764;48.472;8.166;2023-04-16T19:24:33;98676.69;;;9.29;100.00
54876;BME280;40764;48.472;8.166;2023-04-16T19:30:33;98681.84;;;9.20;100.00
54876;BME280;40764;48.472;8.166;2023-04-16T19:36:34;98676.97;;;9.07;100.00
54876;BME280;40764;48.472;8.166;2023-04-16T19:42:34;98680.25;;;9.04;100.00
54876;BME280;40764;48.472;8.166;2023-04-16T19:48:35;98685.13;;;9.12;100.00
54876;BME280;40764;48.472;8.166;2023-04-16T19:54:35;98691.41;;;9.13;100.00
54876;BME280;40764;48.472;8.166;2023-04-16T20:00:38;98691.41;;;9.28;100.00
54876;BME280;40764;48.472;8.166;2023-04-16T20:06:40;98683.50;;;9.31;100.00
54876;BME280;40764;48.472;8.166;2023-04-16T20:12:40;98693.00;;;9.39;100.00
54876;BME280;40764;48.472;8.166;2023-04-16T20:18:40;98689.22;;;9.35;100.00
54876;BME280;40764;48.472;8.166;2023-04-16T20:24:41;98687.00;;;9.42;100.00
54876;BME280;40764;48.472;8.166;2023-04-16T20:30:45;98682.38;;;9.22;100.00
54876;BME280;40764;48.472;8.166;2023-04-16T20:36:46;98679.69;;;9.27;100.00
54876;BME280;40764;48.472;8.166;2023-04-16T20:42:46;98673.69;;;9.25;100.00
54876;BME280;40764;48.472;8.166;2023-04-16T20:48:46;98678.03;;;9.11;100.00
54876;BME280;40764;48.472;8.166;2023-04-16T20:54:47;98668.75;;;9.27;100.00
54876;BME280;40764;48.472;8.166;2023-04-16T21:00:48;98659.19;;;9.35;100.00
54876;BME280;40764;48.472;8.166;2023-04-16T21:06:49;98654.03;;;9.28;100.00
54876;BME280;40764;48.472;8.166;2023-04-16T21:12:52;98655.63;;;9.40;100.00
54876;BME280;40764;48.472;8.166;2023-04-16T21:18:52;98654.03;;;9.28;100.00
54876;BME280;40764;48.472;8.166;2023-04-16T21:24:53;98656.47;;;9.20;100.00
54876;BME280;40764;48.472;8.166;2023-04-16T21:30:53;98656.75;;;9.23;100.00
54876;BME280;40764;48.472;8.166;2023-04-16T21:36:53;98656.19;;;9.21;100.00
54876;BME280;40764;48.472;8.166;2023-04-16T21:42:54;98653.75;;;9.30;100.00
54876;BME280;40764;48.472;8.166;2023-04-16T21:48:54;98655.84;;;9.53;100.00
54876;BME280;40764;48.472;8.166;2023-04-16T21:54:55;98653.16;;;9.43;100.00
54876;BME280;40764;48.472;8.166;2023-04-16T22:00:55;98649.03;;;9.51;100.00
54876;BME280;40764;48.472;8.166;2023-04-16T22:06:55;98654.25;;;9.42;100.00
54876;BME280;40764;48.472;8.166;2023-04-16T22:12:56;98644.69;;;9.55;100.00
54876;BME280;40764;48.472;8.166;2023-04-16T22:18:57;98637.88;;;9.42;100.00
54876;BME280;40764;48.472;8.166;2023-04-16T22:24:57;98648.53;;;9.44;100.00
54876;BME280;40764;48.472;8.166;2023-04-16T22:30:58;98632.72;;;9.36;100.00
54876;BME280;40764;48.472;8.166;2023-04-16T22:36:58;98635.47;;;9.30;100.00
54876;BME280;40764;48.472;8.166;2023-04-16T22:43:00;98633.22;;;9.58;100.00
54876;BME280;40764;48.472;8.166;2023-04-16T22:49:00;98637.34;;;9.40;100.00
54876;BME280;40764;48.472;8.166;2023-04-16T22:55:01;98631.34;;;9.43;100.00
54876;BME280;40764;48.472;8.166;2023-04-16T23:01:02;98639.03;;;9.16;100.00
54876;BME280;40764;48.472;8.166;2023-04-16T23:07:02;98628.38;;;9.29;100.00
54876;BME280;40764;48.472;8.166;2023-04-16T23:13:02;98632.22;;;9.08;100.00
54876;BME280;40764;48.472;8.166;2023-04-16T23:19:03;98636.28;;;9.21;100.00
54876;BME280;40764;48.472;8.166;2023-04-16T23:25:04;98625.41;;;9.26;100.00
54876;BME280;40764;48.472;8.166;2023-04-16T23:31:05;98625.84;;;9.48;100.00
54876;BME280;40764;48.472;8.166;2023-04-16T23:37:05;98623.72;;;9.40;100.00
54876;BME280;40764;48.472;8.166;2023-04-16T23:43:05;98627.81;;;9.32;100.00
54876;BME280;40764;48.472;8.166;2023-04-16T23:49:05;98624.50;;;9.46;100.00
54876;BME280;40764;48.472;8.166;2023-04-16T23:55:06;98617.38;;;9.60;100.00
